PAKT/KTN METAR and TAF weather

Enter ICAO airport designator
Station Type Date Time Source
PAKT METAR 2021/01/17 19:53 UTC NOAA

PAKT 171953Z 13004KT 10SM BKN047 BKN065 07/05 A3028 RMK AO2 RAE19 SLP255 HARBOR WIND 10005KT P0001 T00670050


Station Type Date Time Source
PAKT Decoded METAR 2021/01/17 19:53 UTC NOAA

KETCHIKAN INTERNATIONAL AIRPORT , AK, United States (PAKT) 55-21N 131-43W 25M
Jan 17, 2021 - 02:53 PM EST / 2021.01.17 1953 UTC
Wind: from the SE (130 degrees) at 5 MPH (4 KT):0
Visibility: 10 mile(s):0
Sky conditions: mostly cloudy
Precipitation last hour: 0.01 inches
Temperature: 44.1 F (6.7 C)
Dew Point: 41.0 F (5.0 C)
Relative Humidity: 88%
Pressure (altimeter): 30.28 in. Hg (1025 hPa)
ob: PAKT 171953Z 13004KT 10SM BKN047 BKN065 07/05 A3028 RMK AO2 RAE19 SLP255 HARBOR WIND 10005KT P0001 T00670050
cycle: 20

Station Type Date Time Source
PAKT TAF 2021/01/17 18:42 UTC NOAA

TAF PAKT 171740Z 1718/1818 14007KT P6SM -SHRA SCT010 BKN025 OVC040 WS020/25030KT
FM180400 15007KT 5SM BR VCSH SCT007 BKN015 OVC025
AMD LTD TO CLD VIS AND WIND 1806/1815

Example: see airport list